BENVENUTI AL 154° GRUPPO VIRTUALE
  • Home
  • Il Blog
  • Blog
  • Duis aute irure dolor in reprehenderit in voluptate velit esse
Wednesday, 19 November 2014 01:00

Duis aute irure dolor in reprehenderit in voluptate velit esse

Written by
Rate this item
(1 Vote)
Lorem ipsum dolor sit amet, consectetur adipisicing elit, sed do eiusmod tempor incididunt ut labore et dolore magna aliqua. Ut enim ad minim veniam, quis nostrud exercitation ullamco laboris nisi ut aliquip ex ea commodo consequat. Duis aute irure dolor in reprehenderit in voluptate velit esse cillum dolore eu fugiat nulla pariatur. Excepteur sint occaecat cupidatat non proident, sunt in culpa qui officia deserunt mollit anim id est laborum. Sed ut perspiciatis unde omnis iste natus error sit voluptatem accusantium doloremque laudantium, totam rem aperiam, eaque ipsa quae ab illo inventore veritatis et quasi architecto beatae vitae dicta sunt explicabo.
Read 937 times Last modified on Sunday, 06 October 2019 17:49
More in this category: Lorem ipsum dolor sit amet »

Leave a comment

Make sure you enter all the required information, indicated by an asterisk (*). HTML code is not allowed.

METAR & TAF

[Source: ADDS]
METAR
LIPL 151055Z 22004KT 9999 FEW040 30/17 Q1007 RMK SCT SCT200 VIS MIN 9999 WIND THR31 22005KT WIND THR13 21004KT BLU =
LIPL 151100Z 1512/1521 27006KT 9999 SCT030 SCT060 PROB30 1516/1521 5000 TSRA FEW020CB SCT070
TAF
LIPL 150800Z 1509/1518 27004KT CAVOK PROB30 1515/1518 34010KT 8000 TSRA SCT020CB SCT070 =

Notice: Undefined index: sun in /web/htdocs/www.154gruppovirtuale.it/home/modules/mod_wx/tmpl/default.php on line 13

Official Tools

CombatFlite Logo  
 
   

Network

Simulation Platform